Time;durP1;ratioP1;P1;durP2;ratioP2;P2;SDS_P1;SDS_P2;PMS_P1;PMS_P2;Temp;Humidity;BMP_temperature;BMP_pressure;BME280_temperature;BME280_humidity;BME280_pressure;Samples;Min_cycle;Max_cycle;Signal;HPM_P1;HPM_P2
2022/03/28 00:00:25;;;;;;;;;;;;;;;;;;5095857;28;20083;-68
2022/03/28 00:02:52;;;;;;;4.10;1.35;;;;;;;;;;5095474;28;19963;-68
2022/03/28 00:05:25;;;;;;;4.63;1.58;;;;;;;;;;5093380;28;20050;-68
2022/03/28 00:07:51;;;;;;;4.07;1.67;;;;;;;;;;5096939;27;20140;-68
2022/03/28 00:10:18;;;;;;;4.05;1.50;;;;;;;;;;5097173;28;20139;-68
2022/03/28 00:12:51;;;;;;;5.57;1.60;;;;;;;;;;5093965;28;20545;-68
2022/03/28 00:15:17;;;;;;;8.47;1.73;;;;;;;;;;5097093;28;20533;-69
2022/03/28 00:17:43;;;;;;;7.80;1.80;;;;;;;;;;5092292;28;20376;-68
2022/03/28 00:20:11;;;;;;;6.03;1.70;;;;;;;;;;5094977;28;20545;-68
2022/03/28 00:22:38;;;;;;;7.10;1.80;;;;;;;;;;5096503;28;20046;-68
2022/03/28 00:25:05;;;;;;;8.35;2.47;;;;;;;;;;5093723;28;20159;-68
2022/03/28 00:27:32;;;;;;;8.23;2.03;;;;;;;;;;5098824;28;20067;-68
2022/03/28 00:29:58;;;;;;;7.47;2.00;;;;;;;;;;5095678;28;20527;-68
2022/03/28 00:32:25;;;;;;;5.57;2.25;;;;;;;;;;5097797;28;20051;-68
2022/03/28 00:34:59;;;;;;;6.75;1.90;;;;;;;;;;5095059;28;20138;-68
2022/03/28 00:37:26;;;;;;;;;;;;;;;;;;5096922;28;20063;-68
2022/03/28 00:39:52;;;;;;;5.75;2.17;;;;;;;;;;5095545;28;20401;-68
2022/03/28 00:42:19;;;;;;;4.90;1.90;;;;;;;;;;5098208;28;20071;-68
2022/03/28 00:44:45;;;;;;;6.68;1.42;;;;;;;;;;5099464;28;20150;-68
2022/03/28 00:47:12;;;;;;;7.55;2.20;;;;;;;;;;5097352;28;20047;-68
2022/03/28 00:49:45;;;;;;;9.27;2.25;;;;;;;;;;5093792;28;20130;-68
2022/03/28 00:52:12;;;;;;;7.10;2.03;;;;;;;;;;5093774;28;20143;-68
2022/03/28 00:54:39;;;;;;;9.35;2.22;;;;;;;;;;5095870;28;20162;-68
2022/03/28 00:57:09;;;;;;;7.45;1.70;;;;;;;;;;5093643;28;20131;-68
2022/03/28 00:59:36;;;;;;;8.93;2.50;;;;;;;;;;5096505;28;20139;-68
2022/03/28 01:02:02;;;;;;;6.68;1.95;;;;;;;;;;5098899;28;20130;-68
2022/03/28 01:04:29;;;;;;;5.83;2.10;;;;;;;;;;5099922;28;20062;-68
2022/03/28 01:06:56;;;;;;;7.57;2.15;;;;;;;;;;5099627;27;20290;-68
2022/03/28 01:09:22;;;;;;;4.03;1.80;;;;;;;;;;5097764;28;20511;-68
2022/03/28 01:11:56;;;;;;;9.65;2.17;;;;;;;;;;5102061;27;20499;-68
2022/03/28 01:14:25;;;;;;;8.18;2.15;;;;;;;;;;5099466;27;20082;-68
2022/03/28 01:19:50;;;;;;;8.88;2.30;;;;;;;;;;5096033;28;20119;-68
2022/03/28 01:22:16;;;;;;;5.97;1.92;;;;;;;;;;5098237;28;20079;-69
2022/03/28 01:24:44;;;;;;;8.90;2.38;;;;;;;;;;5096839;28;20047;-69
2022/03/28 01:27:12;;;;;;;9.13;2.10;;;;;;;;;;5098036;28;20609;-69
2022/03/28 01:29:38;;;;;;;10.90;2.10;;;;;;;;;;5099027;28;20599;-68
2022/03/28 01:32:05;;;;;;;7.88;2.08;;;;;;;;;;5099368;28;20542;-69
2022/03/28 01:34:31;;;;;;;11.27;2.53;;;;;;;;;;5100425;28;20147;-68
2022/03/28 01:36:57;;;;;;;10.65;2.65;;;;;;;;;;5097290;27;20067;-69
2022/03/28 01:39:25;;;;;;;7.93;2.00;;;;;;;;;;5099279;28;20143;-69
2022/03/28 01:41:58;;;;;;;6.57;2.20;;;;;;;;;;5100261;28;20043;-68
2022/03/28 01:44:25;;;;;;;15.75;3.10;;;;;;;;;;5100966;28;20059;-68
2022/03/28 01:46:52;;;;;;;11.67;2.60;;;;;;;;;;5096731;28;20486;-68
2022/03/28 01:49:25;;;;;;;19.88;2.97;;;;;;;;;;5097098;28;20134;-68
2022/03/28 01:51:52;;;;;;;7.25;2.75;;;;;;;;;;5102761;27;20142;-69
2022/03/28 01:54:18;;;;;;;12.63;2.90;;;;;;;;;;5094534;27;20554;-68
2022/03/28 01:56:51;;;;;;;8.35;2.88;;;;;;;;;;5095850;28;20486;-68
2022/03/28 01:59:18;;;;;;;7.35;2.88;;;;;;;;;;5097473;28;20076;-68
2022/03/28 02:01:44;;;;;;;9.98;3.08;;;;;;;;;;5093445;28;20515;-69
2022/03/28 02:04:14;;;;;;;13.40;3.60;;;;;;;;;;5096775;28;20055;-69
2022/03/28 02:06:40;;;;;;;10.45;3.72;;;;;;;;;;5099006;27;20135;-69
2022/03/28 02:09:06;;;;;;;14.38;4.20;;;;;;;;;;5098418;27;20131;-69
2022/03/28 02:11:34;;;;;;;12.80;3.95;;;;;;;;;;5099172;28;20475;-69
2022/03/28 02:14:00;;;;;;;10.98;4.00;;;;;;;;;;5097311;28;20101;-69
2022/03/28 02:16:27;;;;;;;11.05;4.00;;;;;;;;;;5083604;28;20131;-68
2022/03/28 02:19:00;;;;;;;8.45;3.85;;;;;;;;;;5096613;28;20067;-69
2022/03/28 02:21:26;;;;;;;30.98;6.28;;;;;;;;;;5099138;28;20131;-69
2022/03/28 02:23:52;;;;;;;11.85;4.85;;;;;;;;;;5098452;27;20047;-68
2022/03/28 02:26:20;;;;;;;10.52;4.80;;;;;;;;;;5096427;27;20135;-68
2022/03/28 02:28:47;;;;;;;12.40;4.88;;;;;;;;;;5099145;28;20138;-69
2022/03/28 02:31:14;;;;;;;11.95;5.10;;;;;;;;;;5093962;28;20084;-69
2022/03/28 02:33:47;;;;;;;17.15;5.28;;;;;;;;;;5098810;28;20051;-68
2022/03/28 02:36:13;;;;;;;13.20;5.10;;;;;;;;;;5096799;28;20093;-69
2022/03/28 02:38:39;;;;;;;17.45;5.50;;;;;;;;;;5099223;28;20134;-68
2022/03/28 02:41:13;;;;;;;13.40;5.30;;;;;;;;;;5104291;27;20094;-69
2022/03/28 02:43:39;;;;;;;20.65;6.07;;;;;;;;;;5094635;27;20658;-68
2022/03/28 02:46:07;;;;;;;16.92;6.32;;;;;;;;;;5084098;28;20086;-68
2022/03/28 02:48:41;;;;;;;13.95;5.50;;;;;;;;;;5094636;28;20672;-69
2022/03/28 02:51:07;;;;;;;18.52;6.40;;;;;;;;;;5096950;28;20495;-68
2022/03/28 02:53:34;;;;;;;19.65;7.38;;;;;;;;;;5097491;28;20092;-68
2022/03/28 02:56:00;;;;;;;17.35;7.55;;;;;;;;;;5100087;27;20490;-69
2022/03/28 02:58:27;;;;;;;20.95;7.45;;;;;;;;;;5098206;27;20132;-69
2022/03/28 03:00:53;;;;;;;17.00;6.27;;;;;;;;;;5095631;28;20090;-68
2022/03/28 03:03:32;;;;;;;19.27;7.75;;;;;;;;;;5098035;28;20388;-69
2022/03/28 03:05:58;;;;;;;17.88;7.13;;;;;;;;;;5101859;27;20044;-69
2022/03/28 03:08:25;;;;;;;21.23;7.93;;;;;;;;;;5097190;28;20084;-68
2022/03/28 03:10:53;;;;;;;20.20;7.72;;;;;;;;;;5094973;28;20139;-69
2022/03/28 03:13:19;;;;;;;20.95;8.95;;;;;;;;;;5097645;28;20162;-69
2022/03/28 03:15:46;;;;;;;19.23;8.70;;;;;;;;;;5098427;28;20078;-69
2022/03/28 03:18:19;;;;;;;19.55;8.07;;;;;;;;;;5099477;27;20154;-69
2022/03/28 03:20:45;;;;;;;26.00;9.02;;;;;;;;;;5094404;27;20126;-69
2022/03/28 03:23:12;;;;;;;18.80;7.18;;;;;;;;;;5097459;27;20083;-69
2022/03/28 03:25:38;;;;;;;21.77;8.80;;;;;;;;;;5096711;27;20135;-69
2022/03/28 03:28:05;;;;;;;19.98;8.27;;;;;;;;;;5096014;28;20087;-69
2022/03/28 03:30:32;;;;;;;20.65;8.65;;;;;;;;;;5097748;28;20135;-69
2022/03/28 03:32:58;;;;;;;25.60;9.33;;;;;;;;;;5097196;28;20134;-69
2022/03/28 03:35:25;;;;;;;28.88;8.93;;;;;;;;;;5098813;28;20075;-69
2022/03/28 03:37:51;;;;;;;22.25;9.43;;;;;;;;;;5097226;28;20097;-69
2022/03/28 03:40:25;;;;;;;25.65;8.75;;;;;;;;;;5095949;28;20123;-69
2022/03/28 03:42:51;;;;;;;25.60;10.43;;;;;;;;;;5092985;28;20131;-69
2022/03/28 03:45:17;;;;;;;33.13;10.80;;;;;;;;;;5098487;28;20163;-69
2022/03/28 03:47:44;;;;;;;30.95;9.82;;;;;;;;;;5096388;28;20055;-69
2022/03/28 03:50:11;;;;;;;35.58;12.02;;;;;;;;;;5094345;28;20071;-69
2022/03/28 03:52:37;;;;;;;28.63;9.05;;;;;;;;;;5095691;28;20494;-69
2022/03/28 03:55:06;;;;;;;30.17;10.53;;;;;;;;;;5095906;28;20127;-69
2022/03/28 03:57:33;;;;;;;28.92;10.05;;;;;;;;;;5096714;27;20059;-69
2022/03/28 03:59:59;;;;;;;30.50;10.07;;;;;;;;;;5095953;28;20143;-69
2022/03/28 04:02:28;;;;;;;28.90;10.73;;;;;;;;;;5096273;28;20048;-69
2022/03/28 04:04:55;;;;;;;33.63;11.70;;;;;;;;;;5097320;28;20049;-69
2022/03/28 04:07:21;;;;;;;29.15;12.05;;;;;;;;;;5094805;28;20136;-69
2022/03/28 04:09:51;;;;;;;32.03;11.18;;;;;;;;;;5096805;28;20048;-69
2022/03/28 04:12:18;;;;;;;30.50;12.50;;;;;;;;;;5097836;28;20126;-69
2022/03/28 04:14:44;;;;;;;30.35;11.57;;;;;;;;;;5096691;28;20138;-69
2022/03/28 04:17:18;;;;;;;35.03;10.95;;;;;;;;;;5098207;28;20472;-69
2022/03/28 04:19:45;;;;;;;31.42;11.43;;;;;;;;;;5096923;28;20130;-70
2022/03/28 04:22:11;;;;;;;33.65;11.38;;;;;;;;;;5099410;28;20123;-70
2022/03/28 04:24:38;;;;;;;34.72;10.68;;;;;;;;;;5096063;28;20048;-69
2022/03/28 04:27:10;;;;;;;38.33;13.57;;;;;;;;;;5095417;28;20139;-70
2022/03/28 04:29:37;;;;;;;31.27;10.80;;;;;;;;;;5097100;28;20044;-70
2022/03/28 04:32:03;;;;;;;34.08;11.75;;;;;;;;;;5097574;28;20090;-70
2022/03/28 04:34:30;;;;;;;34.47;11.47;;;;;;;;;;5095374;28;20052;-69
2022/03/28 04:36:56;;;;;;;27.95;10.00;;;;;;;;;;5099309;28;20373;-70
2022/03/28 04:39:23;;;;;;;33.70;12.02;;;;;;;;;;5099049;28;20051;-69
2022/03/28 04:41:49;;;;;;;35.80;11.98;;;;;;;;;;5097790;28;20119;-69
2022/03/28 04:44:15;;;;;;;36.63;12.63;;;;;;;;;;5100379;27;20090;-69
2022/03/28 04:46:42;;;;;;;36.92;12.80;;;;;;;;;;5100716;28;20131;-69
2022/03/28 04:49:14;;;;;;;32.90;11.98;;;;;;;;;;5097740;27;20555;-70
2022/03/28 04:51:41;;;;;;;38.92;11.35;;;;;;;;;;5101345;27;20135;-69
2022/03/28 04:54:08;;;;;;;32.23;11.37;;;;;;;;;;5099223;28;20113;-70
2022/03/28 04:56:36;;;;;;;37.00;11.93;;;;;;;;;;5103065;27;20385;-69
2022/03/28 04:59:03;;;;;;;30.75;10.73;;;;;;;;;;5098673;28;20048;-69
2022/03/28 05:01:36;;;;;;;33.05;12.27;;;;;;;;;;5101260;28;20150;-69
2022/03/28 05:04:06;;;;;;;37.88;12.07;;;;;;;;;;5093033;28;20056;-69
2022/03/28 05:06:32;;;;;;;33.40;11.88;;;;;;;;;;5099793;28;20117;-69
2022/03/28 05:08:59;;;;;;;36.25;13.02;;;;;;;;;;5098609;28;20083;-69
2022/03/28 05:11:25;;;;;;;33.38;11.50;;;;;;;;;;5102204;28;20056;-70
2022/03/28 05:13:51;;;;;;;35.22;11.32;;;;;;;;;;5100039;27;20135;-69
2022/03/28 05:16:18;;;;;;;46.35;14.27;;;;;;;;;;5083969;28;20131;-69
2022/03/28 05:18:47;;;;;;;42.63;12.80;;;;;;;;;;5102786;28;20044;-70
2022/03/28 05:21:14;;;;;;;38.40;12.88;;;;;;;;;;5098654;28;20511;-70
2022/03/28 05:23:40;;;;;;;35.50;12.35;;;;;;;;;;5100638;28;20158;-70
2022/03/28 05:26:07;;;;;;;41.40;12.93;;;;;;;;;;5095378;27;20559;-70
2022/03/28 05:28:33;;;;;;;42.55;13.55;;;;;;;;;;5105824;27;20142;-70
2022/03/28 05:31:00;;;;;;;46.67;13.70;;;;;;;;;;5104227;27;20131;-70
2022/03/28 05:33:27;;;;;;;46.50;12.73;;;;;;;;;;5102340;27;20052;-70
2022/03/28 05:35:54;;;;;;;40.00;14.02;;;;;;;;;;5099695;28;20842;-69
2022/03/28 05:38:20;;;;;;;33.47;12.90;;;;;;;;;;5098263;28;20091;-70
2022/03/28 05:40:48;;;;;;;40.28;14.15;;;;;;;;;;5099423;28;20098;-69
2022/03/28 05:43:14;;;;;;;36.33;12.50;;;;;;;;;;5097779;28;20127;-69
2022/03/28 05:45:41;;;;;;;39.05;13.77;;;;;;;;;;5098670;27;20136;-70
2022/03/28 05:48:07;;;;;;;39.33;13.97;;;;;;;;;;5100685;28;20079;-70
2022/03/28 05:50:34;;;;;;;44.40;14.13;;;;;;;;;;5097143;28;20732;-69
2022/03/28 05:53:01;;;;;;;38.40;12.15;;;;;;;;;;5099890;28;20463;-69
2022/03/28 05:55:27;;;;;;;38.70;13.43;;;;;;;;;;5101199;27;20131;-70
2022/03/28 05:57:53;;;;;;;44.40;13.57;;;;;;;;;;5097097;28;20104;-70
2022/03/28 06:00:20;;;;;;;51.08;15.80;;;;;;;;;;5098220;28;20483;-70
2022/03/28 06:02:47;;;;;;;41.33;12.95;;;;;;;;;;5096659;28;20083;-70
2022/03/28 06:05:13;;;;;;;43.38;14.45;;;;;;;;;;5102719;27;20087;-70
2022/03/28 06:07:40;;;;;;;36.35;12.77;;;;;;;;;;5097905;28;20133;-70
2022/03/28 06:10:14;;;;;;;45.65;14.10;;;;;;;;;;5098450;28;20134;-70
2022/03/28 06:12:40;;;;;;;40.20;14.40;;;;;;;;;;5096792;28;20568;-69
2022/03/28 06:15:07;;;;;;;42.63;15.52;;;;;;;;;;5098836;28;20127;-70
2022/03/28 06:17:34;;;;;;;42.05;14.23;;;;;;;;;;5102178;28;20146;-70
2022/03/28 06:20:04;;;;;;;42.50;14.93;;;;;;;;;;5099350;28;20048;-70
2022/03/28 06:22:30;;;;;;;51.53;15.02;;;;;;;;;;5099163;28;20491;-70
2022/03/28 06:24:59;;;;;;;50.67;15.70;;;;;;;;;;5098073;28;20085;-70
2022/03/28 06:27:45;;;;;;;43.78;15.30;;;;;;;;;;5097390;28;20062;-70
2022/03/28 06:30:18;;;;;;;38.92;16.00;;;;;;;;;;5100128;28;20079;-70
2022/03/28 06:32:45;;;;;;;33.85;14.68;;;;;;;;;;5100656;28;20143;-70
2022/03/28 06:35:12;;;;;;;48.70;17.30;;;;;;;;;;5100614;28;20130;-71
2022/03/28 06:37:45;;;;;;;51.03;16.65;;;;;;;;;;5098429;28;20130;-70
2022/03/28 06:40:12;;;;;;;43.17;16.35;;;;;;;;;;5099011;28;20136;-69
2022/03/28 06:42:41;;;;;;;37.00;15.05;;;;;;;;;;5096710;28;20049;-70
2022/03/28 06:45:10;;;;;;;46.55;15.75;;;;;;;;;;5100980;28;20454;-70
2022/03/28 06:47:37;;;;;;;;;;;;;;;;;;5097191;28;20039;-70
2022/03/28 06:50:05;;;;;;;34.85;11.25;;;;;;;;;;5098210;28;19971;-70
2022/03/28 06:52:31;;;;;;;;;;;;;;;;;;5101160;27;20130;-70
2022/03/28 06:54:58;;;;;;;34.58;15.73;;;;;;;;;;5097687;28;20343;-70
2022/03/28 06:57:24;;;;;;;59.60;16.67;;;;;;;;;;5098908;28;20139;-70
2022/03/28 06:59:58;;;;;;;36.33;16.73;;;;;;;;;;5097237;28;20087;-70
2022/03/28 07:02:25;;;;;;;41.00;16.67;;;;;;;;;;5099227;28;20058;-69
2022/03/28 07:04:51;;;;;;;39.20;15.75;;;;;;;;;;5093921;28;20135;-70
2022/03/28 07:07:18;;;;;;;34.03;12.50;;;;;;;;;;5091783;28;20132;-70
2022/03/28 07:09:45;;;;;;;45.00;17.27;;;;;;;;;;5098182;28;20173;-69
2022/03/28 07:12:11;;;;;;;49.00;17.17;;;;;;;;;;5096084;28;20048;-70
2022/03/28 07:14:45;;;;;;;44.20;15.45;;;;;;;;;;5098015;28;20488;-70
2022/03/28 07:17:12;;;;;;;34.80;14.02;;;;;;;;;;5095927;28;20132;-70
2022/03/28 07:19:38;;;;;;;38.53;13.65;;;;;;;;;;5098128;28;20370;-70
2022/03/28 07:22:12;;;;;;;37.47;14.85;;;;;;;;;;5096427;28;20134;-70
2022/03/28 07:24:38;;;;;;;34.63;13.55;;;;;;;;;;5099515;28;20134;-70
2022/03/28 07:27:04;;;;;;;39.00;14.60;;;;;;;;;;5096148;28;20097;-70
2022/03/28 07:29:31;;;;;;;45.67;15.13;;;;;;;;;;5098312;28;20130;-69
2022/03/28 07:31:58;;;;;;;41.78;14.20;;;;;;;;;;5099720;27;20384;-70
2022/03/28 07:34:30;;;;;;;44.97;14.65;;;;;;;;;;5100725;27;20152;-70
2022/03/28 07:36:57;;;;;;;32.10;14.07;;;;;;;;;;5097263;28;20097;-70
2022/03/28 07:39:24;;;;;;;36.72;13.05;;;;;;;;;;5090801;28;20622;-70
2022/03/28 07:41:51;;;;;;;36.00;13.55;;;;;;;;;;5082787;28;20459;-70
2022/03/28 07:44:25;;;;;;;38.72;13.27;;;;;;;;;;5098341;28;20503;-70
2022/03/28 07:46:51;;;;;;;40.47;13.98;;;;;;;;;;5095785;28;20127;-70
2022/03/28 07:49:18;;;;;;;42.17;14.85;;;;;;;;;;5096502;27;20090;-70
2022/03/28 07:51:51;;;;;;;42.03;13.15;;;;;;;;;;5097176;28;20083;-70
2022/03/28 07:54:18;;;;;;;35.22;13.32;;;;;;;;;;5093219;28;20135;-69
2022/03/28 07:56:44;;;;;;;36.90;14.00;;;;;;;;;;5099502;28;20062;-70
2022/03/28 07:59:12;;;;;;;32.75;13.38;;;;;;;;;;5095322;28;20139;-70
2022/03/28 08:01:39;;;;;;;;;;;;;;;;;;5092729;28;20087;-70
2022/03/28 08:04:06;;;;;;;31.65;11.50;;;;;;;;;;5092866;28;19926;-69
2022/03/28 08:06:33;;;;;;;35.92;12.18;;;;;;;;;;5096635;28;20052;-70
2022/03/28 08:08:59;;;;;;;25.13;11.25;;;;;;;;;;5091896;28;20079;-70
2022/03/28 08:11:26;;;;;;;39.13;12.13;;;;;;;;;;5092914;28;20104;-70
2022/03/28 08:13:53;;;;;;;42.10;13.30;;;;;;;;;;5095006;28;20051;-70
2022/03/28 08:16:26;;;;;;;38.95;14.43;;;;;;;;;;5094995;28;20048;-70
2022/03/28 08:18:53;;;;;;;32.88;13.90;;;;;;;;;;5094675;28;20150;-70
2022/03/28 08:21:20;;;;;;;41.05;13.70;;;;;;;;;;5090294;28;20570;-70
2022/03/28 08:23:46;;;;;;;43.63;14.30;;;;;;;;;;5095226;28;20080;-70
2022/03/28 08:26:13;;;;;;;39.40;15.97;;;;;;;;;;5094547;28;20486;-69
2022/03/28 08:28:40;;;;;;;45.28;15.85;;;;;;;;;;5094704;28;20130;-69
2022/03/28 08:31:06;;;;;;;45.67;16.15;;;;;;;;;;5098608;28;20497;-69
2022/03/28 08:33:33;;;;;;;;;;;;;;;;;;5099786;28;20082;-69
2022/03/28 08:36:00;;;;;;;44.95;14.45;;;;;;;;;;5092638;28;19963;-69
2022/03/28 08:38:26;;;;;;;42.20;13.38;;;;;;;;;;5097507;28;20086;-69
2022/03/28 08:40:54;;;;;;;37.08;14.90;;;;;;;;;;5097378;28;20139;-69
2022/03/28 08:43:21;;;;;;;33.47;12.60;;;;;;;;;;5096584;28;20080;-69
2022/03/28 08:45:51;;;;;;;34.85;13.88;;;;;;;;;;5092047;28;20558;-69
2022/03/28 08:48:27;;;;;;;44.87;15.10;;;;;;;;;;5096643;28;20061;-69
2022/03/28 08:50:54;;;;;;;44.38;15.30;;;;;;;;;;5095867;28;20142;-69
2022/03/28 08:53:21;;;;;;;31.58;14.05;;;;;;;;;;5092960;28;20043;-69
2022/03/28 08:55:48;;;;;;;31.55;13.15;;;;;;;;;;5095939;28;20090;-70
2022/03/28 10:17:58;;;;;;;36.75;14.20;;;;;;;;;;5495073;23;20059;-83
2022/03/28 10:20:26;;;;;;;40.55;14.10;;;;;;;;;;4952315;29;20138;-82
2022/03/28 10:23:10;;;;;;;39.08;15.02;;;;;;;;;;4933596;29;20795;-82
2022/03/28 10:25:39;;;;;;;42.30;16.02;;;;;;;;;;4934631;29;20103;-83
2022/03/28 10:28:05;;;;;;;50.88;14.98;;;;;;;;;;4934583;29;20083;-82
2022/03/28 10:30:33;;;;;;;42.75;14.75;;;;;;;;;;4934418;29;20090;-83
2022/03/28 10:33:08;;;;;;;49.78;14.55;;;;;;;;;;4932773;29;20134;-82
2022/03/28 10:35:34;;;;;;;34.05;12.77;;;;;;;;;;4933617;29;20043;-82
2022/03/28 10:38:17;;;;;;;41.15;14.32;;;;;;;;;;4932564;29;20131;-82
2022/03/28 10:40:57;;;;;;;41.63;14.48;;;;;;;;;;4933023;29;20051;-82
2022/03/28 10:43:26;;;;;;;40.28;13.23;;;;;;;;;;4931474;29;20130;-83
2022/03/28 10:45:56;;;;;;;40.45;15.25;;;;;;;;;;4930927;29;20139;-83
2022/03/28 10:48:33;;;;;;;38.67;13.80;;;;;;;;;;4933450;29;20048;-82
2022/03/28 10:51:33;;;;;;;40.47;14.30;;;;;;;;;;4933703;29;20051;-83
2022/03/28 10:54:05;;;;;;;46.45;15.05;;;;;;;;;;4929511;29;20135;-82
2022/03/28 10:56:32;;;;;;;38.13;11.88;;;;;;;;;;4932985;29;20075;-82
2022/03/28 10:59:00;;;;;;;34.95;12.00;;;;;;;;;;4934109;29;20123;-83
2022/03/28 11:01:28;;;;;;;46.40;13.30;;;;;;;;;;4947289;29;20710;-83
2022/03/28 11:04:00;;;;;;;37.17;12.68;;;;;;;;;;4933204;29;20536;-83
2022/03/28 11:06:43;;;;;;;43.17;13.80;;;;;;;;;;4932861;29;20126;-83
2022/03/28 11:09:36;;;;;;;37.92;12.15;;;;;;;;;;4942501;29;20047;-83
2022/03/28 11:12:06;;;;;;;35.38;11.50;;;;;;;;;;4932879;29;20071;-83
2022/03/28 11:14:39;;;;;;;42.45;13.73;;;;;;;;;;4933275;29;20064;-82
2022/03/28 11:17:12;;;;;;;35.20;11.60;;;;;;;;;;4933556;28;20082;-82
2022/03/28 11:19:50;;;;;;;31.13;12.00;;;;;;;;;;4930379;29;20136;-82
2022/03/28 11:22:17;;;;;;;30.08;10.25;;;;;;;;;;4932753;29;20134;-83
2022/03/28 11:24:47;;;;;;;34.78;11.02;;;;;;;;;;4932696;29;20503;-83
2022/03/28 11:27:14;;;;;;;26.77;9.82;;;;;;;;;;4930606;29;20079;-83
2022/03/28 11:29:41;;;;;;;22.00;8.95;;;;;;;;;;4932244;29;20508;-83
2022/03/28 11:32:08;;;;;;;20.58;9.65;;;;;;;;;;4930111;29;20151;-82
2022/03/28 11:34:35;;;;;;;23.73;10.50;;;;;;;;;;4933733;29;20411;-83
2022/03/28 11:37:03;;;;;;;24.90;9.95;;;;;;;;;;4932205;29;20079;-83
2022/03/28 11:39:32;;;;;;;19.30;9.05;;;;;;;;;;4931889;29;20139;-83
2022/03/28 11:41:58;;;;;;;25.98;10.23;;;;;;;;;;4931264;29;20508;-83
2022/03/28 11:44:25;;;;;;;24.88;8.55;;;;;;;;;;4932217;29;20087;-83
2022/03/28 11:46:54;;;;;;;25.08;9.48;;;;;;;;;;4932662;29;20470;-83
2022/03/28 11:49:21;;;;;;;21.55;8.05;;;;;;;;;;4929549;29;20043;-83
2022/03/28 11:51:48;;;;;;;27.40;9.18;;;;;;;;;;4932714;29;20531;-84
2022/03/28 11:54:19;;;;;;;25.15;8.70;;;;;;;;;;4933155;29;20131;-83
2022/03/28 11:59:37;;;;;;;26.50;8.00;;;;;;;;;;4932987;29;20079;-83
2022/03/28 12:02:06;;;;;;;23.55;8.82;;;;;;;;;;4924604;29;20138;-83
2022/03/28 12:04:33;;;;;;;20.92;8.68;;;;;;;;;;4933430;29;20090;-83
2022/03/28 12:07:00;;;;;;;25.13;9.03;;;;;;;;;;4932498;29;20503;-83
2022/03/28 12:09:26;;;;;;;29.38;9.10;;;;;;;;;;4932755;29;20488;-83
2022/03/28 12:12:00;;;;;;;24.20;8.35;;;;;;;;;;4932654;29;20130;-84
2022/03/28 12:14:29;;;;;;;26.35;10.00;;;;;;;;;;4932721;29;20480;-82
2022/03/28 12:16:56;;;;;;;20.85;7.80;;;;;;;;;;4930981;28;20583;-83
2022/03/28 12:19:28;;;;;;;24.45;9.00;;;;;;;;;;4930850;29;20516;-83
2022/03/28 12:21:55;;;;;;;26.83;8.68;;;;;;;;;;4928345;29;20050;-82
2022/03/28 12:24:23;;;;;;;27.02;7.88;;;;;;;;;;4932491;29;20419;-83
2022/03/28 12:26:51;;;;;;;25.33;7.93;;;;;;;;;;4932158;29;20064;-82
2022/03/28 12:29:18;;;;;;;23.05;9.18;;;;;;;;;;4931051;29;20448;-84
2022/03/28 12:31:45;;;;;;;32.03;8.97;;;;;;;;;;4932361;29;20093;-84
2022/03/28 12:34:13;;;;;;;29.02;9.30;;;;;;;;;;4931193;29;20051;-83
2022/03/28 12:36:39;;;;;;;34.70;9.50;;;;;;;;;;4932194;29;20083;-83
2022/03/28 12:39:07;;;;;;;26.35;8.60;;;;;;;;;;4931037;29;20411;-83
2022/03/28 12:41:40;;;;;;;27.52;8.18;;;;;;;;;;4930494;29;20071;-83
2022/03/28 12:44:11;;;;;;;33.35;8.90;;;;;;;;;;4931961;29;20078;-83
2022/03/28 12:46:38;;;;;;;20.95;8.00;;;;;;;;;;4931082;29;20130;-82
2022/03/28 12:49:08;;;;;;;24.00;9.07;;;;;;;;;;4932555;29;20079;-82
2022/03/28 12:51:35;;;;;;;24.13;9.07;;;;;;;;;;4914980;29;20484;-83
2022/03/28 12:54:06;;;;;;;27.05;8.55;;;;;;;;;;4932205;29;20075;-82
2022/03/28 12:56:43;;;;;;;25.90;8.57;;;;;;;;;;4930966;29;20056;-83
2022/03/28 12:59:17;;;;;;;26.50;8.38;;;;;;;;;;4931703;29;20083;-83
2022/03/28 13:01:43;;;;;;;26.70;8.25;;;;;;;;;;4934878;29;20501;-83
2022/03/28 13:04:17;;;;;;;26.77;7.63;;;;;;;;;;4934778;29;20047;-83
2022/03/28 13:06:50;;;;;;;23.90;8.07;;;;;;;;;;4930994;29;20051;-83
2022/03/28 13:09:20;;;;;;;25.65;7.70;;;;;;;;;;4925760;29;20052;-83
2022/03/28 13:11:48;;;;;;;28.58;6.95;;;;;;;;;;4935262;29;20098;-82
2022/03/28 13:14:14;;;;;;;;;;;;;;;;;;4936054;29;20172;-83
2022/03/28 13:16:41;;;;;;;27.20;7.45;;;;;;;;;;4937032;29;20347;-83
2022/03/28 13:19:18;;;;;;;30.15;6.97;;;;;;;;;;4933676;28;20197;-83
2022/03/28 13:35:19;;;;;;;20.50;6.97;;;;;;;;;;5931380;23;20437;-70
2022/03/28 13:37:58;;;;;;;20.02;6.22;;;;;;;;;;4986145;28;20078;-83
2022/03/28 13:40:26;;;;;;;23.08;6.20;;;;;;;;;;4987613;28;20106;-83
2022/03/28 13:42:53;;;;;;;26.73;6.50;;;;;;;;;;4986411;28;20075;-83
2022/03/28 13:45:20;;;;;;;22.67;6.25;;;;;;;;;;4986272;28;20148;-83
2022/03/28 13:47:47;;;;;;;22.45;5.43;;;;;;;;;;4983960;28;20134;-83
2022/03/28 13:50:13;;;;;;;29.00;6.32;;;;;;;;;;4973562;28;20569;-82
2022/03/28 13:53:01;;;;;;;20.77;5.63;;;;;;;;;;4985554;28;20516;-82
2022/03/28 13:55:27;;;;;;;16.15;5.28;;;;;;;;;;4973036;28;20089;-83
2022/03/28 13:57:55;;;;;;;20.38;4.80;;;;;;;;;;4972839;28;20450;-82
2022/03/28 14:00:25;;;;;;;19.77;5.03;;;;;;;;;;4983972;28;20133;-84
2022/03/28 14:03:05;;;;;;;20.63;4.97;;;;;;;;;;4983531;28;20817;-82
2022/03/28 14:05:39;;;;;;;15.80;4.75;;;;;;;;;;4967205;28;20059;-82
2022/03/28 14:08:06;;;;;;;17.40;4.53;;;;;;;;;;4985377;28;20050;-82
2022/03/28 14:10:32;;;;;;;10.53;3.83;;;;;;;;;;4985661;28;20078;-83
2022/03/28 14:13:06;;;;;;;16.40;4.05;;;;;;;;;;4970275;28;20336;-83
2022/03/28 14:15:32;;;;;;;12.80;3.58;;;;;;;;;;4983006;28;20077;-82
2022/03/28 14:17:59;;;;;;;8.95;2.97;;;;;;;;;;4985452;28;20116;-83
2022/03/28 14:20:26;;;;;;;7.53;2.22;;;;;;;;;;4969761;28;20504;-83
2022/03/28 14:22:52;;;;;;;8.93;3.17;;;;;;;;;;4967603;28;20128;-83
2022/03/28 14:25:20;;;;;;;9.68;2.30;;;;;;;;;;4971078;28;20047;-83
2022/03/28 14:27:47;;;;;;;8.77;2.55;;;;;;;;;;4986293;28;20039;-83
2022/03/28 14:30:15;;;;;;;10.88;2.63;;;;;;;;;;4984892;28;20544;-82
2022/03/28 14:32:41;;;;;;;8.88;2.03;;;;;;;;;;4986542;28;20053;-82
2022/03/28 14:35:15;;;;;;;6.95;1.90;;;;;;;;;;4986043;28;20564;-83
2022/03/28 14:37:41;;;;;;;7.68;2.25;;;;;;;;;;4984253;28;20545;-83
2022/03/28 14:40:08;;;;;;;8.07;1.73;;;;;;;;;;4978700;28;20047;-83
2022/03/28 14:42:40;;;;;;;5.80;1.98;;;;;;;;;;4969582;28;20046;-84
2022/03/28 14:45:07;;;;;;;7.25;1.60;;;;;;;;;;4985153;28;20119;-82
2022/03/28 14:47:33;;;;;;;10.90;1.70;;;;;;;;;;4967870;28;20066;-81
2022/03/28 14:50:08;;;;;;;5.15;1.50;;;;;;;;;;4979171;28;20043;-83
2022/03/28 14:52:35;;;;;;;;;;;;;;;;;;4963291;28;20052;-82
2022/03/28 14:55:01;;;;;;;5.50;1.77;;;;;;;;;;4977316;28;20376;-83
2022/03/28 14:57:30;;;;;;;5.97;1.58;;;;;;;;;;4962938;28;20051;-83
2022/03/28 14:59:56;;;;;;;5.68;1.83;;;;;;;;;;4964118;28;20504;-81
2022/03/28 15:02:23;;;;;;;4.93;1.17;;;;;;;;;;4980263;28;20051;-83
2022/03/28 15:04:52;;;;;;;7.55;1.40;;;;;;;;;;4980813;28;20141;-83
2022/03/28 15:07:22;;;;;;;6.93;1.70;;;;;;;;;;4967400;28;20925;-83
2022/03/28 15:09:48;;;;;;;4.38;1.17;;;;;;;;;;4964744;28;20051;-83
2022/03/28 15:12:15;;;;;;;4.72;1.38;;;;;;;;;;4962595;28;20082;-85
2022/03/28 15:14:41;;;;;;;5.25;1.38;;;;;;;;;;4971250;28;20050;-85
2022/03/28 15:17:08;;;;;;;4.95;1.33;;;;;;;;;;4970431;28;20069;-84
2022/03/28 15:19:36;;;;;;;4.30;1.40;;;;;;;;;;4964967;28;20074;-83
2022/03/28 15:27:24;;;;;;;8.35;1.40;;;;;;;;;;5158174;23;20443;-72
2022/03/28 15:29:51;;;;;;;5.68;1.33;;;;;;;;;;5002582;28;20056;-73
2022/03/28 15:32:17;;;;;;;4.05;1.20;;;;;;;;;;5003070;28;20050;-73
2022/03/28 15:34:44;;;;;;;4.05;1.20;;;;;;;;;;5001610;28;20050;-73
2022/03/28 15:37:11;;;;;;;4.60;1.40;;;;;;;;;;4930141;28;20479;-73
2022/03/28 15:39:37;;;;;;;3.05;1.38;;;;;;;;;;4973667;28;20180;-73
2022/03/28 15:42:07;;;;;;;2.75;1.10;;;;;;;;;;4982566;28;20050;-72
2022/03/28 15:44:34;;;;;;;5.13;1.35;;;;;;;;;;4986515;28;20708;-72
2022/03/28 15:47:02;;;;;;;4.47;1.30;;;;;;;;;;4987380;28;20042;-73
2022/03/28 15:49:28;;;;;;;5.93;1.00;;;;;;;;;;4986090;28;20097;-70
2022/03/28 15:51:55;;;;;;;2.67;0.95;;;;;;;;;;4967439;28;20062;-70
2022/03/28 15:54:22;;;;;;;4.40;1.30;;;;;;;;;;4987348;28;20129;-72
2022/03/28 15:56:48;;;;;;;5.32;1.85;;;;;;;;;;4986121;28;20568;-72
2022/03/28 15:59:15;;;;;;;6.37;1.70;;;;;;;;;;4985808;28;20560;-72
2022/03/28 16:01:48;;;;;;;4.05;1.50;;;;;;;;;;4984529;28;20046;-72
2022/03/28 16:04:18;;;;;;;4.53;1.65;;;;;;;;;;4973546;28;20085;-72
2022/03/28 16:06:45;;;;;;;3.88;1.35;;;;;;;;;;4974973;28;20141;-72
2022/03/28 16:09:12;;;;;;;;;;;;;;;;;;4975074;28;20184;-72
2022/03/28 16:11:40;;;;;;;8.05;1.77;;;;;;;;;;4976020;28;19929;-72
2022/03/28 16:14:07;;;;;;;7.40;1.20;;;;;;;;;;4986835;28;20038;-72
2022/03/28 16:16:34;;;;;;;4.22;2.05;;;;;;;;;;4988443;28;20046;-72
2022/03/28 16:19:01;;;;;;;5.90;1.67;;;;;;;;;;4986650;28;20069;-71
2022/03/28 16:21:28;;;;;;;3.15;1.27;;;;;;;;;;4986788;28;20051;-71